sensor_id;sensor_type;location;lat;lon;timestamp;P1;durP1;ratioP1;P2;durP2;ratioP2
48891;SDS011;50130;52.150;5.236;2022-11-03T00:00:09;15.4;;;4.0;;
48891;SDS011;50130;52.150;5.236;2022-11-03T00:03:25;15.8;;;3.5;;
48891;SDS011;50130;52.150;5.236;2022-11-03T00:06:03;15.8;;;4.0;;
48891;SDS011;50130;52.150;5.236;2022-11-03T00:07:40;17.11;;;4.1;;
48891;SDS011;50130;52.150;5.236;2022-11-03T00:09:17;14.8;;;3.5;;
48891;SDS011;50130;52.150;5.236;2022-11-03T00:11:00;18.2;;;4.3;;
48891;SDS011;50130;52.150;5.236;2022-11-03T00:12:37;15.2;;;3.9;;
48891;SDS011;50130;52.150;5.236;2022-11-03T00:15:52;15.3;;;3.7;;
48891;SDS011;50130;52.150;5.236;2022-11-03T00:17:28;18.41;;;4.2;;
48891;SDS011;50130;52.150;5.236;2022-11-03T00:19:04;17.5;;;4.0;;
48891;SDS011;50130;52.150;5.236;2022-11-03T00:22:18;15.5;;;3.7;;
48891;SDS011;50130;52.150;5.236;2022-11-03T00:23:54;17.91;;;4.3;;
48891;SDS011;50130;52.150;5.236;2022-11-03T00:25:31;15.5;;;3.8;;
48891;SDS011;50130;52.150;5.236;2022-11-03T00:27:07;15.4;;;3.6;;
48891;SDS011;50130;52.150;5.236;2022-11-03T00:30:21;17.41;;;4.1;;
48891;SDS011;50130;52.150;5.236;2022-11-03T00:31:57;15.1;;;4.1;;
48891;SDS011;50130;52.150;5.236;2022-11-03T00:33:33;15.3;;;3.7;;
48891;SDS011;50130;52.150;5.236;2022-11-03T00:36:47;16.11;;;3.5;;
48891;SDS011;50130;52.150;5.236;2022-11-03T00:38:23;19.3;;;3.7;;
48891;SDS011;50130;52.150;5.236;2022-11-03T00:40:00;16.61;;;3.9;;
48891;SDS011;50130;52.150;5.236;2022-11-03T00:43:14;17.3;;;4.3;;
48891;SDS011;50130;52.150;5.236;2022-11-03T00:44:49;19.5;;;4.3;;
48891;SDS011;50130;52.150;5.236;2022-11-03T00:46:26;15.8;;;4.0;;
48891;SDS011;50130;52.150;5.236;2022-11-03T00:48:35;14.5;;;3.7;;
48891;SDS011;50130;52.150;5.236;2022-11-03T00:50:12;17.61;;;3.9;;
48891;SDS011;50130;52.150;5.236;2022-11-03T00:53:24;16.7;;;4.2;;
48891;SDS011;50130;52.150;5.236;2022-11-03T00:55:00;19.41;;;4.1;;
48891;SDS011;50130;52.150;5.236;2022-11-03T00:56:37;15.1;;;4.41;;
48891;SDS011;50130;52.150;5.236;2022-11-03T00:59:51;15.2;;;3.7;;
48891;SDS011;50130;52.150;5.236;2022-11-03T01:01:27;14.9;;;3.5;;
48891;SDS011;50130;52.150;5.236;2022-11-03T01:03:06;19.7;;;4.3;;
48891;SDS011;50130;52.150;5.236;2022-11-03T01:07:35;16.9;;;3.8;;
48891;SDS011;50130;52.150;5.236;2022-11-03T01:09:11;12.8;;;3.6;;
48891;SDS011;50130;52.150;5.236;2022-11-03T01:13:27;16.5;;;4.1;;
48891;SDS011;50130;52.150;5.236;2022-11-03T01:16:42;17.0;;;3.7;;
48891;SDS011;50130;52.150;5.236;2022-11-03T01:18:18;13.7;;;3.4;;
48891;SDS011;50130;52.150;5.236;2022-11-03T01:19:54;13.7;;;3.4;;
48891;SDS011;50130;52.150;5.236;2022-11-03T01:21:30;19.8;;;3.7;;
48891;SDS011;50130;52.150;5.236;2022-11-03T01:24:43;18.0;;;3.6;;
48891;SDS011;50130;52.150;5.236;2022-11-03T01:26:19;14.9;;;3.8;;
48891;SDS011;50130;52.150;5.236;2022-11-03T01:27:57;13.5;;;3.7;;
48891;SDS011;50130;52.150;5.236;2022-11-03T01:31:10;16.4;;;3.5;;
48891;SDS011;50130;52.150;5.236;2022-11-03T01:32:48;15.4;;;3.6;;
48891;SDS011;50130;52.150;5.236;2022-11-03T01:34:24;17.3;;;4.3;;
48891;SDS011;50130;52.150;5.236;2022-11-03T01:37:38;17.7;;;4.0;;
48891;SDS011;50130;52.150;5.236;2022-11-03T01:39:15;15.9;;;3.5;;
48891;SDS011;50130;52.150;5.236;2022-11-03T01:40:53;16.11;;;4.0;;
48891;SDS011;50130;52.150;5.236;2022-11-03T01:42:29;13.3;;;3.4;;
48891;SDS011;50130;52.150;5.236;2022-11-03T01:46:19;18.91;;;4.0;;
48891;SDS011;50130;52.150;5.236;2022-11-03T01:48:00;16.7;;;4.1;;
48891;SDS011;50130;52.150;5.236;2022-11-03T01:49:38;16.4;;;3.6;;
48891;SDS011;50130;52.150;5.236;2022-11-03T01:51:19;17.2;;;4.41;;
48891;SDS011;50130;52.150;5.236;2022-11-03T01:53:00;16.11;;;3.6;;
48891;SDS011;50130;52.150;5.236;2022-11-03T01:56:17;16.0;;;3.9;;
48891;SDS011;50130;52.150;5.236;2022-11-03T01:57:56;20.3;;;4.0;;
48891;SDS011;50130;52.150;5.236;2022-11-03T01:59:38;20.3;;;4.0;;
48891;SDS011;50130;52.150;5.236;2022-11-03T02:01:15;15.7;;;3.9;;
48891;SDS011;50130;52.150;5.236;2022-11-03T02:04:29;15.8;;;3.8;;
48891;SDS011;50130;52.150;5.236;2022-11-03T02:06:08;16.3;;;3.8;;
48891;SDS011;50130;52.150;5.236;2022-11-03T02:07:46;15.3;;;3.6;;
48891;SDS011;50130;52.150;5.236;2022-11-03T02:13:44;13.5;;;3.7;;
48891;SDS011;50130;52.150;5.236;2022-11-03T02:15:20;15.8;;;3.5;;
48891;SDS011;50130;52.150;5.236;2022-11-03T02:16:58;14.6;;;3.5;;
48891;SDS011;50130;52.150;5.236;2022-11-03T02:18:41;13.7;;;3.5;;
48891;SDS011;50130;52.150;5.236;2022-11-03T02:20:20;17.7;;;4.3;;
48891;SDS011;50130;52.150;5.236;2022-11-03T02:23:56;13.8;;;3.3;;
48891;SDS011;50130;52.150;5.236;2022-11-03T02:25:39;14.2;;;3.6;;
48891;SDS011;50130;52.150;5.236;2022-11-03T02:27:18;14.4;;;3.3;;
48891;SDS011;50130;52.150;5.236;2022-11-03T02:28:55;20.8;;;3.7;;
48891;SDS011;50130;52.150;5.236;2022-11-03T02:30:33;13.7;;;3.3;;
48891;SDS011;50130;52.150;5.236;2022-11-03T02:33:59;14.8;;;4.0;;
48891;SDS011;50130;52.150;5.236;2022-11-03T02:37:26;18.11;;;3.6;;
48891;SDS011;50130;52.150;5.236;2022-11-03T02:39:07;15.0;;;3.7;;
48891;SDS011;50130;52.150;5.236;2022-11-03T02:42:29;15.7;;;3.8;;
48891;SDS011;50130;52.150;5.236;2022-11-03T02:44:07;17.91;;;3.4;;
48891;SDS011;50130;52.150;5.236;2022-11-03T02:45:49;15.8;;;4.0;;
48891;SDS011;50130;52.150;5.236;2022-11-03T02:47:27;15.3;;;3.4;;
48891;SDS011;50130;52.150;5.236;2022-11-03T02:50:42;14.7;;;3.3;;
48891;SDS011;50130;52.150;5.236;2022-11-03T02:52:32;14.9;;;3.3;;
48891;SDS011;50130;52.150;5.236;2022-11-03T02:54:14;16.9;;;3.6;;
48891;SDS011;50130;52.150;5.236;2022-11-03T02:55:58;14.3;;;3.7;;
48891;SDS011;50130;52.150;5.236;2022-11-03T02:59:24;14.6;;;3.7;;
48891;SDS011;50130;52.150;5.236;2022-11-03T03:01:06;15.8;;;3.7;;
48891;SDS011;50130;52.150;5.236;2022-11-03T03:02:49;16.61;;;3.6;;
48891;SDS011;50130;52.150;5.236;2022-11-03T03:04:33;14.5;;;3.4;;
48891;SDS011;50130;52.150;5.236;2022-11-03T03:06:14;15.9;;;3.4;;
48891;SDS011;50130;52.150;5.236;2022-11-03T03:09:40;15.9;;;4.41;;
48891;SDS011;50130;52.150;5.236;2022-11-03T03:11:35;17.2;;;3.6;;
48891;SDS011;50130;52.150;5.236;2022-11-03T03:13:18;17.61;;;3.8;;
48891;SDS011;50130;52.150;5.236;2022-11-03T03:14:57;17.41;;;3.9;;
48891;SDS011;50130;52.150;5.236;2022-11-03T03:16:41;16.11;;;3.6;;
48891;SDS011;50130;52.150;5.236;2022-11-03T03:20:06;14.5;;;3.2;;
48891;SDS011;50130;52.150;5.236;2022-11-03T03:21:49;12.6;;;3.5;;
48891;SDS011;50130;52.150;5.236;2022-11-03T03:23:33;13.6;;;3.5;;
48891;SDS011;50130;52.150;5.236;2022-11-03T03:25:12;17.0;;;3.8;;
48891;SDS011;50130;52.150;5.236;2022-11-03T03:28:39;16.8;;;3.2;;
48891;SDS011;50130;52.150;5.236;2022-11-03T03:30:23;12.7;;;3.3;;
48891;SDS011;50130;52.150;5.236;2022-11-03T03:31:59;17.7;;;3.3;;
48891;SDS011;50130;52.150;5.236;2022-11-03T03:33:41;18.0;;;3.3;;
48891;SDS011;50130;52.150;5.236;2022-11-03T03:35:22;14.6;;;3.2;;
48891;SDS011;50130;52.150;5.236;2022-11-03T03:38:43;16.5;;;3.9;;
48891;SDS011;50130;52.150;5.236;2022-11-03T03:40:26;12.8;;;3.5;;
48891;SDS011;50130;52.150;5.236;2022-11-03T03:42:07;14.0;;;3.5;;
48891;SDS011;50130;52.150;5.236;2022-11-03T03:43:48;13.7;;;3.3;;
48891;SDS011;50130;52.150;5.236;2022-11-03T03:47:06;16.5;;;3.6;;
48891;SDS011;50130;52.150;5.236;2022-11-03T03:48:48;17.0;;;3.6;;
48891;SDS011;50130;52.150;5.236;2022-11-03T03:50:25;17.2;;;3.5;;
48891;SDS011;50130;52.150;5.236;2022-11-03T03:52:08;13.6;;;3.4;;
48891;SDS011;50130;52.150;5.236;2022-11-03T03:55:30;12.4;;;3.3;;
48891;SDS011;50130;52.150;5.236;2022-11-03T03:57:11;12.8;;;3.2;;
48891;SDS011;50130;52.150;5.236;2022-11-03T03:58:50;12.0;;;3.1;;
48891;SDS011;50130;52.150;5.236;2022-11-03T04:00:26;13.3;;;3.5;;
48891;SDS011;50130;52.150;5.236;2022-11-03T04:03:39;15.6;;;3.5;;
48891;SDS011;50130;52.150;5.236;2022-11-03T04:05:15;14.0;;;3.2;;
48891;SDS011;50130;52.150;5.236;2022-11-03T04:07:45;13.2;;;3.4;;
48891;SDS011;50130;52.150;5.236;2022-11-03T04:09:22;14.2;;;3.3;;
48891;SDS011;50130;52.150;5.236;2022-11-03T04:22:16;13.6;;;3.3;;
48891;SDS011;50130;52.150;5.236;2022-11-03T04:23:53;15.9;;;3.2;;
48891;SDS011;50130;52.150;5.236;2022-11-03T04:27:11;14.7;;;3.2;;
48891;SDS011;50130;52.150;5.236;2022-11-03T04:29:03;13.7;;;3.2;;
48891;SDS011;50130;52.150;5.236;2022-11-03T04:30:44;14.7;;;3.0;;
48891;SDS011;50130;52.150;5.236;2022-11-03T04:32:20;14.1;;;3.6;;
48891;SDS011;50130;52.150;5.236;2022-11-03T04:33:56;14.5;;;3.6;;
48891;SDS011;50130;52.150;5.236;2022-11-03T04:37:10;17.8;;;3.6;;
48891;SDS011;50130;52.150;5.236;2022-11-03T04:38:48;14.3;;;3.2;;
48891;SDS011;50130;52.150;5.236;2022-11-03T04:40:24;13.6;;;3.1;;
48891;SDS011;50130;52.150;5.236;2022-11-03T04:43:51;13.0;;;3.2;;
48891;SDS011;50130;52.150;5.236;2022-11-03T04:45:27;12.9;;;3.1;;
48891;SDS011;50130;52.150;5.236;2022-11-03T04:47:06;11.2;;;3.1;;
48891;SDS011;50130;52.150;5.236;2022-11-03T04:48:46;16.0;;;3.8;;
48891;SDS011;50130;52.150;5.236;2022-11-03T04:51:59;14.2;;;3.4;;
48891;SDS011;50130;52.150;5.236;2022-11-03T04:53:35;13.9;;;3.2;;
48891;SDS011;50130;52.150;5.236;2022-11-03T04:55:12;12.0;;;2.9;;
48891;SDS011;50130;52.150;5.236;2022-11-03T04:58:27;15.3;;;3.5;;
48891;SDS011;50130;52.150;5.236;2022-11-03T05:00:12;13.0;;;3.3;;
48891;SDS011;50130;52.150;5.236;2022-11-03T05:01:50;10.21;;;2.9;;
48891;SDS011;50130;52.150;5.236;2022-11-03T05:03:29;13.1;;;3.3;;
48891;SDS011;50130;52.150;5.236;2022-11-03T05:06:52;13.0;;;3.2;;
48891;SDS011;50130;52.150;5.236;2022-11-03T05:08:28;12.3;;;3.3;;
48891;SDS011;50130;52.150;5.236;2022-11-03T05:10:06;15.7;;;3.6;;
48891;SDS011;50130;52.150;5.236;2022-11-03T05:11:47;11.8;;;2.9;;
48891;SDS011;50130;52.150;5.236;2022-11-03T05:15:03;15.4;;;3.5;;
48891;SDS011;50130;52.150;5.236;2022-11-03T05:16:58;11.8;;;2.7;;
48891;SDS011;50130;52.150;5.236;2022-11-03T05:18:37;14.9;;;3.3;;
48891;SDS011;50130;52.150;5.236;2022-11-03T05:20:23;10.3;;;3.1;;
48891;SDS011;50130;52.150;5.236;2022-11-03T05:22:07;12.9;;;3.8;;
48891;SDS011;50130;52.150;5.236;2022-11-03T05:25:38;12.0;;;3.5;;
48891;SDS011;50130;52.150;5.236;2022-11-03T05:27:17;12.2;;;3.3;;
48891;SDS011;50130;52.150;5.236;2022-11-03T05:28:59;14.4;;;3.1;;
48891;SDS011;50130;52.150;5.236;2022-11-03T05:30:38;12.8;;;3.3;;
48891;SDS011;50130;52.150;5.236;2022-11-03T05:33:57;12.1;;;3.5;;
48891;SDS011;50130;52.150;5.236;2022-11-03T05:35:34;14.3;;;3.4;;
48891;SDS011;50130;52.150;5.236;2022-11-03T05:37:14;12.2;;;3.3;;
48891;SDS011;50130;52.150;5.236;2022-11-03T05:39:00;12.4;;;3.1;;
48891;SDS011;50130;52.150;5.236;2022-11-03T05:41:04;15.6;;;3.8;;
48891;SDS011;50130;52.150;5.236;2022-11-03T05:44:31;14.7;;;3.7;;
48891;SDS011;50130;52.150;5.236;2022-11-03T05:46:10;10.5;;;3.0;;
48891;SDS011;50130;52.150;5.236;2022-11-03T05:47:49;13.3;;;3.2;;
48891;SDS011;50130;52.150;5.236;2022-11-03T05:49:29;14.5;;;4.0;;
48891;SDS011;50130;52.150;5.236;2022-11-03T05:52:54;13.0;;;3.1;;
48891;SDS011;50130;52.150;5.236;2022-11-03T05:54:34;11.5;;;3.0;;
48891;SDS011;50130;52.150;5.236;2022-11-03T05:56:12;13.9;;;3.1;;
48891;SDS011;50130;52.150;5.236;2022-11-03T05:57:53;13.3;;;3.2;;
48891;SDS011;50130;52.150;5.236;2022-11-03T06:01:09;12.7;;;3.1;;
48891;SDS011;50130;52.150;5.236;2022-11-03T06:02:51;12.2;;;3.2;;
48891;SDS011;50130;52.150;5.236;2022-11-03T06:04:28;13.3;;;3.6;;
48891;SDS011;50130;52.150;5.236;2022-11-03T06:06:11;15.7;;;3.3;;
48891;SDS011;50130;52.150;5.236;2022-11-03T06:09:35;13.4;;;3.9;;
48891;SDS011;50130;52.150;5.236;2022-11-03T06:11:15;11.1;;;3.1;;
48891;SDS011;50130;52.150;5.236;2022-11-03T06:13:00;11.3;;;3.2;;
48891;SDS011;50130;52.150;5.236;2022-11-03T06:14:46;13.5;;;3.1;;
48891;SDS011;50130;52.150;5.236;2022-11-03T06:18:16;11.9;;;3.1;;
48891;SDS011;50130;52.150;5.236;2022-11-03T06:19:57;12.2;;;3.0;;
48891;SDS011;50130;52.150;5.236;2022-11-03T06:21:35;13.5;;;3.4;;
48891;SDS011;50130;52.150;5.236;2022-11-03T06:23:11;15.1;;;3.2;;
48891;SDS011;50130;52.150;5.236;2022-11-03T06:24:54;15.2;;;3.2;;
48891;SDS011;50130;52.150;5.236;2022-11-03T06:28:10;13.1;;;3.6;;
48891;SDS011;50130;52.150;5.236;2022-11-03T06:29:55;13.4;;;3.9;;
48891;SDS011;50130;52.150;5.236;2022-11-03T06:31:36;12.6;;;3.5;;
48891;SDS011;50130;52.150;5.236;2022-11-03T06:33:14;13.3;;;3.5;;
48891;SDS011;50130;52.150;5.236;2022-11-03T06:36:34;15.0;;;3.3;;
48891;SDS011;50130;52.150;5.236;2022-11-03T06:38:13;11.8;;;3.2;;
48891;SDS011;50130;52.150;5.236;2022-11-03T06:39:56;12.1;;;3.3;;
48891;SDS011;50130;52.150;5.236;2022-11-03T06:41:38;14.2;;;3.5;;
48891;SDS011;50130;52.150;5.236;2022-11-03T06:44:56;15.6;;;3.5;;
48891;SDS011;50130;52.150;5.236;2022-11-03T06:46:32;15.6;;;3.5;;
48891;SDS011;50130;52.150;5.236;2022-11-03T06:48:10;12.7;;;3.3;;
48891;SDS011;50130;52.150;5.236;2022-11-03T06:49:55;14.8;;;3.3;;
48891;SDS011;50130;52.150;5.236;2022-11-03T06:53:11;14.0;;;3.8;;
48891;SDS011;50130;52.150;5.236;2022-11-03T06:55:00;13.8;;;3.6;;
48891;SDS011;50130;52.150;5.236;2022-11-03T06:56:53;11.1;;;2.9;;
48891;SDS011;50130;52.150;5.236;2022-11-03T06:58:29;11.8;;;3.3;;
48891;SDS011;50130;52.150;5.236;2022-11-03T07:01:53;13.9;;;3.3;;
48891;SDS011;50130;52.150;5.236;2022-11-03T07:03:32;11.9;;;3.1;;
48891;SDS011;50130;52.150;5.236;2022-11-03T07:05:15;17.3;;;3.3;;
48891;SDS011;50130;52.150;5.236;2022-11-03T07:06:58;12.5;;;3.3;;
48891;SDS011;50130;52.150;5.236;2022-11-03T07:10:18;13.9;;;3.4;;
48891;SDS011;50130;52.150;5.236;2022-11-03T07:11:57;11.0;;;3.3;;
48891;SDS011;50130;52.150;5.236;2022-11-03T07:13:35;13.1;;;3.4;;
48891;SDS011;50130;52.150;5.236;2022-11-03T07:15:18;12.3;;;3.1;;
48891;SDS011;50130;52.150;5.236;2022-11-03T07:18:38;15.2;;;3.9;;
48891;SDS011;50130;52.150;5.236;2022-11-03T07:20:17;10.21;;;3.1;;
48891;SDS011;50130;52.150;5.236;2022-11-03T07:21:54;14.9;;;3.5;;
48891;SDS011;50130;52.150;5.236;2022-11-03T07:23:33;14.6;;;3.6;;
48891;SDS011;50130;52.150;5.236;2022-11-03T07:26:53;15.0;;;3.3;;
48891;SDS011;50130;52.150;5.236;2022-11-03T07:28:35;13.1;;;3.8;;
48891;SDS011;50130;52.150;5.236;2022-11-03T07:30:15;14.4;;;3.6;;
48891;SDS011;50130;52.150;5.236;2022-11-03T07:31:56;13.6;;;3.3;;
48891;SDS011;50130;52.150;5.236;2022-11-03T07:35:17;10.5;;;3.1;;
48891;SDS011;50130;52.150;5.236;2022-11-03T07:37:07;12.0;;;3.2;;
48891;SDS011;50130;52.150;5.236;2022-11-03T07:38:50;15.2;;;3.7;;
48891;SDS011;50130;52.150;5.236;2022-11-03T07:40:30;12.9;;;3.2;;
48891;SDS011;50130;52.150;5.236;2022-11-03T07:43:52;12.7;;;3.7;;
48891;SDS011;50130;52.150;5.236;2022-11-03T07:45:32;15.1;;;3.5;;
48891;SDS011;50130;52.150;5.236;2022-11-03T07:47:13;12.9;;;3.5;;
48891;SDS011;50130;52.150;5.236;2022-11-03T07:48:56;12.0;;;3.4;;
48891;SDS011;50130;52.150;5.236;2022-11-03T07:50:34;9.9;;;3.2;;
48891;SDS011;50130;52.150;5.236;2022-11-03T07:53:51;12.9;;;3.3;;
48891;SDS011;50130;52.150;5.236;2022-11-03T07:55:30;16.61;;;4.0;;
48891;SDS011;50130;52.150;5.236;2022-11-03T07:57:10;16.11;;;3.7;;
48891;SDS011;50130;52.150;5.236;2022-11-03T08:00:35;14.1;;;3.6;;
48891;SDS011;50130;52.150;5.236;2022-11-03T08:02:14;13.1;;;3.6;;
48891;SDS011;50130;52.150;5.236;2022-11-03T08:04:04;14.7;;;3.5;;
48891;SDS011;50130;52.150;5.236;2022-11-03T08:05:42;16.2;;;3.8;;
48891;SDS011;50130;52.150;5.236;2022-11-03T08:07:18;12.7;;;3.2;;
48891;SDS011;50130;52.150;5.236;2022-11-03T08:10:31;12.5;;;3.3;;
48891;SDS011;50130;52.150;5.236;2022-11-03T08:12:07;12.7;;;3.3;;
48891;SDS011;50130;52.150;5.236;2022-11-03T08:13:43;11.9;;;3.5;;
48891;SDS011;50130;52.150;5.236;2022-11-03T08:16:56;11.9;;;3.3;;
48891;SDS011;50130;52.150;5.236;2022-11-03T08:18:32;12.7;;;3.1;;
48891;SDS011;50130;52.150;5.236;2022-11-03T08:20:09;13.1;;;3.4;;
48891;SDS011;50130;52.150;5.236;2022-11-03T08:23:22;12.0;;;3.1;;
48891;SDS011;50130;52.150;5.236;2022-11-03T08:24:58;12.4;;;3.5;;
48891;SDS011;50130;52.150;5.236;2022-11-03T08:26:36;15.1;;;3.6;;
48891;SDS011;50130;52.150;5.236;2022-11-03T08:28:12;12.2;;;3.3;;
48891;SDS011;50130;52.150;5.236;2022-11-03T08:31:25;15.5;;;3.6;;
48891;SDS011;50130;52.150;5.236;2022-11-03T08:33:01;16.5;;;3.9;;
48891;SDS011;50130;52.150;5.236;2022-11-03T08:34:37;13.1;;;3.4;;
48891;SDS011;50130;52.150;5.236;2022-11-03T08:37:49;15.0;;;3.6;;
48891;SDS011;50130;52.150;5.236;2022-11-03T08:39:26;13.3;;;3.2;;
48891;SDS011;50130;52.150;5.236;2022-11-03T08:41:02;12.3;;;3.4;;
48891;SDS011;50130;52.150;5.236;2022-11-03T08:44:15;12.2;;;3.4;;
48891;SDS011;50130;52.150;5.236;2022-11-03T08:45:52;13.5;;;3.8;;
48891;SDS011;50130;52.150;5.236;2022-11-03T08:47:28;12.4;;;3.3;;
48891;SDS011;50130;52.150;5.236;2022-11-03T08:50:41;13.5;;;3.0;;
48891;SDS011;50130;52.150;5.236;2022-11-03T08:52:18;13.1;;;3.7;;
48891;SDS011;50130;52.150;5.236;2022-11-03T08:53:55;15.0;;;3.7;;
48891;SDS011;50130;52.150;5.236;2022-11-03T08:55:31;13.8;;;3.4;;
48891;SDS011;50130;52.150;5.236;2022-11-03T08:58:43;12.2;;;3.2;;
48891;SDS011;50130;52.150;5.236;2022-11-03T09:00:20;12.8;;;3.7;;
48891;SDS011;50130;52.150;5.236;2022-11-03T09:01:56;13.8;;;3.4;;
48891;SDS011;50130;52.150;5.236;2022-11-03T09:05:09;11.8;;;3.4;;
48891;SDS011;50130;52.150;5.236;2022-11-03T09:06:46;13.1;;;3.3;;
48891;SDS011;50130;52.150;5.236;2022-11-03T09:08:22;12.7;;;3.7;;
48891;SDS011;50130;52.150;5.236;2022-11-03T09:11:34;9.31;;;3.2;;
48891;SDS011;50130;52.150;5.236;2022-11-03T09:13:11;15.3;;;3.5;;
48891;SDS011;50130;52.150;5.236;2022-11-03T09:14:47;14.5;;;3.5;;
48891;SDS011;50130;52.150;5.236;2022-11-03T09:16:23;12.3;;;3.5;;
48891;SDS011;50130;52.150;5.236;2022-11-03T09:19:35;11.1;;;3.3;;
48891;SDS011;50130;52.150;5.236;2022-11-03T09:21:13;12.8;;;3.6;;
48891;SDS011;50130;52.150;5.236;2022-11-03T09:22:50;13.8;;;3.9;;
48891;SDS011;50130;52.150;5.236;2022-11-03T09:26:06;11.5;;;3.5;;
48891;SDS011;50130;52.150;5.236;2022-11-03T09:27:42;15.0;;;3.8;;
48891;SDS011;50130;52.150;5.236;2022-11-03T09:29:18;15.5;;;3.4;;
48891;SDS011;50130;52.150;5.236;2022-11-03T09:32:32;10.1;;;3.2;;
48891;SDS011;50130;52.150;5.236;2022-11-03T09:34:09;11.8;;;3.0;;
48891;SDS011;50130;52.150;5.236;2022-11-03T09:35:45;11.8;;;3.0;;
48891;SDS011;50130;52.150;5.236;2022-11-03T09:37:22;11.8;;;3.3;;
48891;SDS011;50130;52.150;5.236;2022-11-03T09:40:34;12.3;;;3.5;;
48891;SDS011;50130;52.150;5.236;2022-11-03T09:42:10;12.7;;;3.4;;
48891;SDS011;50130;52.150;5.236;2022-11-03T09:43:48;14.1;;;2.9;;
48891;SDS011;50130;52.150;5.236;2022-11-03T09:47:02;12.7;;;3.2;;
48891;SDS011;50130;52.150;5.236;2022-11-03T09:48:40;13.5;;;3.2;;
48891;SDS011;50130;52.150;5.236;2022-11-03T09:50:18;14.1;;;3.4;;
48891;SDS011;50130;52.150;5.236;2022-11-03T09:51:56;13.9;;;3.2;;
48891;SDS011;50130;52.150;5.236;2022-11-03T09:55:11;11.8;;;3.5;;
48891;SDS011;50130;52.150;5.236;2022-11-03T09:56:50;11.8;;;3.5;;
48891;SDS011;50130;52.150;5.236;2022-11-03T09:58:26;10.9;;;3.3;;
48891;SDS011;50130;52.150;5.236;2022-11-03T10:01:39;12.1;;;3.4;;
48891;SDS011;50130;52.150;5.236;2022-11-03T10:03:19;11.5;;;3.5;;
48891;SDS011;50130;52.150;5.236;2022-11-03T10:04:56;13.3;;;2.8;;
48891;SDS011;50130;52.150;5.236;2022-11-03T10:06:36;13.3;;;2.8;;
48891;SDS011;50130;52.150;5.236;2022-11-03T10:09:58;13.3;;;3.3;;
48891;SDS011;50130;52.150;5.236;2022-11-03T10:11:35;11.7;;;3.2;;
48891;SDS011;50130;52.150;5.236;2022-11-03T10:13:14;12.9;;;3.0;;
48891;SDS011;50130;52.150;5.236;2022-11-03T10:15:05;10.6;;;2.9;;
48891;SDS011;50130;52.150;5.236;2022-11-03T10:18:32;8.9;;;2.8;;
48891;SDS011;50130;52.150;5.236;2022-11-03T10:20:10;12.5;;;3.7;;
48891;SDS011;50130;52.150;5.236;2022-11-03T10:21:49;12.9;;;3.2;;
48891;SDS011;50130;52.150;5.236;2022-11-03T10:23:27;8.1;;;2.8;;
48891;SDS011;50130;52.150;5.236;2022-11-03T10:27:18;10.5;;;3.1;;
48891;SDS011;50130;52.150;5.236;2022-11-03T10:28:59;10.8;;;3.1;;
48891;SDS011;50130;52.150;5.236;2022-11-03T10:30:45;9.71;;;2.7;;
48891;SDS011;50130;52.150;5.236;2022-11-03T10:32:27;9.81;;;2.7;;
48891;SDS011;50130;52.150;5.236;2022-11-03T10:34:05;11.4;;;2.7;;
48891;SDS011;50130;52.150;5.236;2022-11-03T10:35:59;11.5;;;3.0;;
48891;SDS011;50130;52.150;5.236;2022-11-03T10:39:22;12.2;;;2.9;;
48891;SDS011;50130;52.150;5.236;2022-11-03T10:41:08;10.3;;;2.7;;
48891;SDS011;50130;52.150;5.236;2022-11-03T10:42:56;9.0;;;2.6;;
48891;SDS011;50130;52.150;5.236;2022-11-03T10:44:33;10.3;;;2.7;;
48891;SDS011;50130;52.150;5.236;2022-11-03T10:47:58;12.0;;;3.1;;
48891;SDS011;50130;52.150;5.236;2022-11-03T10:49:35;12.4;;;3.2;;
48891;SDS011;50130;52.150;5.236;2022-11-03T10:51:12;10.4;;;2.8;;
48891;SDS011;50130;52.150;5.236;2022-11-03T10:52:54;9.71;;;2.6;;
48891;SDS011;50130;52.150;5.236;2022-11-03T10:56:10;11.2;;;3.0;;
48891;SDS011;50130;52.150;5.236;2022-11-03T10:57:46;10.21;;;2.7;;
48891;SDS011;50130;52.150;5.236;2022-11-03T10:59:25;12.9;;;2.9;;
48891;SDS011;50130;52.150;5.236;2022-11-03T11:01:07;9.31;;;2.8;;
48891;SDS011;50130;52.150;5.236;2022-11-03T11:04:24;9.9;;;3.0;;
48891;SDS011;50130;52.150;5.236;2022-11-03T11:06:00;10.0;;;3.0;;
48891;SDS011;50130;52.150;5.236;2022-11-03T11:07:37;10.6;;;3.2;;
48891;SDS011;50130;52.150;5.236;2022-11-03T11:10:57;13.0;;;3.0;;
48891;SDS011;50130;52.150;5.236;2022-11-03T11:13:00;14.5;;;3.1;;
48891;SDS011;50130;52.150;5.236;2022-11-03T11:14:49;12.3;;;2.7;;
48891;SDS011;50130;52.150;5.236;2022-11-03T11:16:45;11.7;;;3.0;;
48891;SDS011;50130;52.150;5.236;2022-11-03T11:19:09;10.7;;;3.1;;
48891;SDS011;50130;52.150;5.236;2022-11-03T11:20:45;11.4;;;3.0;;
48891;SDS011;50130;52.150;5.236;2022-11-03T11:22:22;11.7;;;3.1;;
48891;SDS011;50130;52.150;5.236;2022-11-03T11:23:57;11.4;;;2.8;;
48891;SDS011;50130;52.150;5.236;2022-11-03T11:27:46;9.5;;;2.7;;
48891;SDS011;50130;52.150;5.236;2022-11-03T11:29:34;9.9;;;2.5;;
48891;SDS011;50130;52.150;5.236;2022-11-03T11:31:26;9.1;;;2.5;;
48891;SDS011;50130;52.150;5.236;2022-11-03T11:33:11;9.21;;;3.0;;
48891;SDS011;50130;52.150;5.236;2022-11-03T11:34:55;11.5;;;2.9;;
48891;SDS011;50130;52.150;5.236;2022-11-03T11:36:32;10.8;;;2.8;;
48891;SDS011;50130;52.150;5.236;2022-11-03T11:41:19;9.0;;;2.8;;
48891;SDS011;50130;52.150;5.236;2022-11-03T11:43:28;8.31;;;2.6;;
48891;SDS011;50130;52.150;5.236;2022-11-03T11:45:05;9.1;;;2.7;;
48891;SDS011;50130;52.150;5.236;2022-11-03T11:48:18;11.7;;;2.6;;
48891;SDS011;50130;52.150;5.236;2022-11-03T11:50:27;9.4;;;3.0;;
48891;SDS011;50130;52.150;5.236;2022-11-03T11:52:05;11.2;;;2.5;;
48891;SDS011;50130;52.150;5.236;2022-11-03T11:53:43;8.9;;;3.1;;
48891;SDS011;50130;52.150;5.236;2022-11-03T11:55:24;9.4;;;2.7;;
48891;SDS011;50130;52.150;5.236;2022-11-03T11:58:54;11.4;;;2.7;;
48891;SDS011;50130;52.150;5.236;2022-11-03T12:00:31;9.0;;;2.6;;
48891;SDS011;50130;52.150;5.236;2022-11-03T12:02:11;8.6;;;2.5;;
48891;SDS011;50130;52.150;5.236;2022-11-03T12:03:54;8.71;;;2.7;;
48891;SDS011;50130;52.150;5.236;2022-11-03T12:07:10;8.71;;;2.7;;
48891;SDS011;50130;52.150;5.236;2022-11-03T12:08:47;9.5;;;2.8;;
48891;SDS011;50130;52.150;5.236;2022-11-03T12:10:25;9.1;;;2.7;;
48891;SDS011;50130;52.150;5.236;2022-11-03T12:12:04;8.6;;;2.8;;
48891;SDS011;50130;52.150;5.236;2022-11-03T12:15:54;7.9;;;2.6;;
48891;SDS011;50130;52.150;5.236;2022-11-03T12:17:33;7.2;;;2.4;;
48891;SDS011;50130;52.150;5.236;2022-11-03T12:19:41;6.9;;;2.31;;
48891;SDS011;50130;52.150;5.236;2022-11-03T12:21:48;10.0;;;2.5;;
48891;SDS011;50130;52.150;5.236;2022-11-03T12:23:33;9.1;;;2.6;;
48891;SDS011;50130;52.150;5.236;2022-11-03T12:25:44;8.6;;;2.4;;
48891;SDS011;50130;52.150;5.236;2022-11-03T12:27:39;8.31;;;2.31;;
48891;SDS011;50130;52.150;5.236;2022-11-03T12:29:17;9.5;;;2.6;;
48891;SDS011;50130;52.150;5.236;2022-11-03T12:30:53;9.5;;;2.7;;
48891;SDS011;50130;52.150;5.236;2022-11-03T12:34:06;7.5;;;2.6;;
48891;SDS011;50130;52.150;5.236;2022-11-03T12:35:43;9.4;;;2.6;;
48891;SDS011;50130;52.150;5.236;2022-11-03T12:37:19;7.8;;;2.6;;
48891;SDS011;50130;52.150;5.236;2022-11-03T12:40:31;10.8;;;2.6;;
48891;SDS011;50130;52.150;5.236;2022-11-03T12:42:07;11.1;;;2.7;;
48891;SDS011;50130;52.150;5.236;2022-11-03T12:43:43;11.1;;;2.7;;
48891;SDS011;50130;52.150;5.236;2022-11-03T12:46:56;8.81;;;2.6;;
48891;SDS011;50130;52.150;5.236;2022-11-03T12:48:33;7.9;;;2.31;;
48891;SDS011;50130;52.150;5.236;2022-11-03T12:50:09;8.5;;;2.6;;
48891;SDS011;50130;52.150;5.236;2022-11-03T12:53:22;8.6;;;2.7;;
48891;SDS011;50130;52.150;5.236;2022-11-03T12:54:58;8.2;;;2.21;;
48891;SDS011;50130;52.150;5.236;2022-11-03T12:56:34;9.5;;;2.21;;
48891;SDS011;50130;52.150;5.236;2022-11-03T12:58:11;8.1;;;2.5;;
48891;SDS011;50130;52.150;5.236;2022-11-03T13:01:23;6.9;;;2.4;;
48891;SDS011;50130;52.150;5.236;2022-11-03T13:02:59;6.9;;;2.21;;
48891;SDS011;50130;52.150;5.236;2022-11-03T13:04:35;8.6;;;2.5;;
48891;SDS011;50130;52.150;5.236;2022-11-03T13:07:49;6.0;;;1.9;;
48891;SDS011;50130;52.150;5.236;2022-11-03T13:09:27;8.2;;;2.4;;